LHPP/PEV METAR and TAF weather

Enter ICAO airport designator
Station Type Date Time Source
LHPP METAR 2020/04/09 17:45 UTC NOAA

LHPP 091745Z 26004KT CAVOK 17/M02 Q1020


Station Type Date Time Source
LHPP Decoded METAR 2020/04/09 17:45 UTC NOAA

Pecs / Pogany, Hungary (LHPP) 46-06N 018-14E 203M
Apr 09, 2020 - 01:45 PM EDT / 2020.04.09 1745 UTC
Wind: from the W (260 degrees) at 5 MPH (4 KT):0
Visibility: greater than 7 mile(s):0
Temperature: 62 F (17 C)
Dew Point: 28 F (-2 C)
Relative Humidity: 27%
Pressure (altimeter): 30.12 in. Hg (1020 hPa)
ob: LHPP 091745Z 26004KT CAVOK 17/M02 Q1020
cycle: 18

Station Type Date Time Source
LHPP TAF 2017/08/21 15:50 UTC NOAA

TAF LHPP 211700Z 2115/2214 CNL

Example: see airport list